Synop

Synop-termin główny Polska


529
SMPL01 SOWR 200600
AAXX 20061
12120 12680 31803 10148 20116 30205 40212 57003 69922 81132
  333 10148 20099 31007 55104 70002 93000=
12250 12979 61302 10145 20095 30145 40232 53004 60002 80008
  333 10177 20056 30003 55062 93000=
12295 12966 20302 10156 20118 30038 40218 52006 69902 80002
  333 10168 20116 31011 55067 79999 93000=
12330 12965 31803 10150 20106 30120 40226 55000 60002 80001
  333 10190 20090 30007 55052 93000=
12375 12980 30000 10150 20100 30100 40228 53005 60002 81032
  333 10169 20109 31009 55097 79999 93000=
12424 11970 41403 10145 20124 30084 40234 51007 60002 70141 80009
  333 10170 20064 32004 55043 70045 93000=
530
SMPL20 SOWR 200600
AAXX 20061
12140 11563 61805 10128 20119 30215 40224 55001 69942 70182 83230
  333 10128 20082 31008 70004 93093=
12205 12670 72303 10145 20124 30204 40212 53007 60002 873//
  333 10176 20112 31009 55096 70017 93000=
12465 11962 20000 10144 20144 30005 40234 53006 60002 70340 80001
  333 10154 20070 31004 55/// 20874 70008 93000=
12560 12960 00802 10152 20129 39904 40238 53005 60082
  333 10152 20074 31006 55008 70152 93008=
12695 NIL=
531
SMPL30 SOWR 200600
AAXX 20061
12100 11970 22002 10156 20105 30202 40209 53002 60002 702// 82030
  333 10156 20091 30007 55/// 21983 70001 93000=
12105 12568 41702 10147 20127 30168 40210 55002 60002 81331
  333 10147 20093 31005 55093 70058 93000=
12135 11658 51703 10121 20115 30220 40223 54000 60022 71082 82231
  333 10122 20074 32007 55054 70017 82840 93002=
12185 11332 52301 10098 20098 30099 40234 55000 60002 72841 84630
  333 10148 20053 30004 55057 93000=
12195 12973 20302 10144 20108 30003 40226 52004 60002 80002
  333 10151 20081 30006 55077 93000=
12235 12464 71603 10126 20098 30016 40224 55001 69902 8353/
  333 10159 20089 30008 55075 79999 93000=
12270 12980 60902 10147 20099 30053 40232 53005 60002 81038
  333 10171 20063 31004 55035 79999 93000=
12300 12765 41801 10135 20114 30126 40215 53001 60002 82331
  333 10178 20106 31007 55061 70019 93000=
12360 12980 71202 10147 20095 30101 40232 53005 69902 80006
  333 10171 20054 30003 50033 55013 70001 93000=
12385 12969 23503 10149 20124 30034 40220 52003 69942 82031
  333 10160 20115 31011 55054 70004 93000=
12400 12970 41702 10142 20117 39991 40222 53004 60002 82058
  333 10173 20108 30010 55030 70002 93000=
12435 11657 51502 10133 20114 30068 40238 53006 60002 71011 81136
  333 10162 20083 31005 55036 70009 93000=
12495 11363 83203 10140 20129 39934 40221 53008 60142 70182 886//
  333 10164 20127 31014 55075 70168 93097=
12510 12998 52705 10078 20000 38440 48555 52006 69922 81056
  333 10083 20060 3//// 41998 55009 70058 93000
  444 17113=
12520 11401 72201 10086 20083 39816 40251 51010 60002 74644 876//
  333 10152 20055 32005 50083 55041 70119 93000=
12570 12966 53502 10148 20119 39919 40231 53007 69902 85051
  333 10152 20106 31009 55026 70045 93000=
12575 12460 52602 10146 20126 39982 40233 52010 60002 85800
  333 10163 20133 31013 55020 70088 93000=
12595 06/// /3203 10150 20149 39949 40215 52012 69942
333 10238 20134 70077=
532
SMPL40 SOWR 200600
AAXX 20061
12115 12480 21905 10150 20119 30192 40206 55005 69982 81208
333 10150 20113 31010 70008 93000=
12125 11998 21702 10158 20120 30164 40213 57002 69952 70181 81031
  333 10164 20096 31008 55103 70005 93095=
12200 12475 62601 10153 20119 30204 40210 53008 60002 84370
  333 10154 20119 30011 93000=
12215 36/// /0000 10120 20107 30053 40221 54000 69912


333 10210 20083 70000=
12272 11980 71501 10124 20092 30068 40233 53001 60002 70141 81038
  333 10164 20051 30003 93000=
12280 12977 30302 10128 20098 30077 40232 53002 60002 82031
  333 10152 20075 30004 55039 93000=
12285 36/// /9901 10136 20105 30115 40229 52004 69992


333 10192 20071 70009=
12345 12965 41301 10151 20107 30094 40235 53006 60002 80002
  333 10172 20078 30002 55016 70001 93000=
12415 11980 71102 10141 20121 30078 40229 52006 60002 70241 80008
  333 10164 20073 31006 55053 21525 70055 93000=
12455 11925 20000 10128 20126 39997 40240 52009 60002 72811 80001
  333 10156 20073 31007 55020 70018 93000=
12497 11458 83203 10150 20144 39998 40213 52013 60082 71082 889//
  333 10157 20137 32013 50363 55093 70216 93091=
12500 11978 40000 10118 20118 39823 40236 52003 60002 70340 80006
  333 10161 20058 31005 55064 70089 93000=
12530 11957 11601 10123 20121 30045 40243 53009 60002 71040 80001
  333 10159 20061 31006 55031 70018 93000=
12550 11956 32301 10127 20113 39884 40239 53006 60002 71000 80006
  333 10150 20076 31007 70030 93000=
12580 11358 82902 10149 20134 39971 40225 52012 60002 71022 886//
  333 10167 20143 31014 55083 70012 88708 93000=
12585 11959 53304 10145 20125 39962 40224 52010 69912 71011 85030
  333 10157 20129 31013 50373 55051 70200 93000=
12600 11550 10301 10136 20118 39766 40242 52006 60002 71011 81200
  333 10144 20111 31009 70058 93000=
12650 11/84 20504 10049 20021 38057 48552 53007 60002 72800 81502
  333 10069 20029 3//// 42055 55024 70050 93000=
12660 12560 73402 10156 20123 39883 40235 51008 60002 872//
  333 10158 20137 31012 55058 70013 93000=
533
SMPL50 SOWR 200600
AAXX 20061
12160 12560 61602 10128 20102 30179 40231 52006 60002 84208
  333 10157 20074 31006 55093 93000=
12210 11998 42103 10159 20121 30139 40206 54000 60002 702// 84030
  333 10163 20103 31008 55083 70004 93000=
12230 11959 51702 10138 20106 30134 40223 55001 60002 71011 83032
  333 10179 20078 30006 55047 93000=
12310 12565 60000 10146 20133 30186 40215 51003 60002 8553/
  333 10174 20080 31005 70041 93000=
12399 11562 83603 10147 20134 30048 40213 52010 60012 70282 885//
  333 10183 20138 31013 55081 70013 93092=
12418 12980 21603 10150 20119 30116 40228 53004 60002 80001
  333 10176 20060 30003 55057 70021 93000=
12469 11958 20000 10154 20143 30005 40232 53007 60002 71040 80001
  333 10154 20090 31007 50113 55007 79999 93000=
12488 12981 43002 10152 20114 30073 40225 53007 60002 83031
  333 10172 20124 31013 55056 70011 93000=
12540 11958 01101 10122 20119 39991 40242 51004 60002 71000
  333 10160 20070 32006 55027 70116 93000=
12566 11030 32201 10130 20128 39955 40242 53007 60002 71041 83600
  333 10145 20086 31007 70121 93000=
12625 11358 70901 10122 20104 39247 42855 52006 69992 71052 872//
  333 10122 20104 31010 55040 20645 70113 93094=
12670 11224 83003 10136 20130 39835 40231 53010 60002 71022 886//
  333 10158 20135 32013 55067 70075 88792 93000=
12690 11456 72903 10143 20130 39725 40224 52008 69962 71022 872//
  333 10153 20132 32013 55061 70182 93000=




Instytut Meteorologii i Gospodarki Wodnej nie ponosi odpowiedzialności za jakiekolwiek straty spowodowane stosowaniem danych przedstawionych w serwisie WWW.
Dane i Produkty chronione prawem autorskim IMGW. Jakiekolwiek wykorzystywanie lub rozpowszechnianie zabronione.


Powrót do listy produktów